sensor_id;sensor_type;location;lat;lon;timestamp;pressure;altitude;pressure_sealevel;temperature;humidity
10587;BME280;5341;47.606;7.576;2022-10-17T00:00:27;99268.03;;;19.74;62.33
10587;BME280;5341;47.606;7.576;2022-10-17T00:02:56;99275.59;;;19.72;62.35
10587;BME280;5341;47.606;7.576;2022-10-17T00:05:25;99268.75;;;19.69;62.27
10587;BME280;5341;47.606;7.576;2022-10-17T00:07:54;99267.09;;;19.68;62.26
10587;BME280;5341;47.606;7.576;2022-10-17T00:10:22;99262.94;;;19.66;62.19
10587;BME280;5341;47.606;7.576;2022-10-17T00:12:50;99272.16;;;19.65;62.20
10587;BME280;5341;47.606;7.576;2022-10-17T00:15:19;99274.88;;;19.65;62.38
10587;BME280;5341;47.606;7.576;2022-10-17T00:17:47;99278.00;;;19.61;62.46
10587;BME280;5341;47.606;7.576;2022-10-17T00:20:15;99274.69;;;19.59;62.46
10587;BME280;5341;47.606;7.576;2022-10-17T00:22:43;99266.78;;;19.58;62.37
10587;BME280;5341;47.606;7.576;2022-10-17T00:25:12;99274.09;;;19.57;62.27
10587;BME280;5341;47.606;7.576;2022-10-17T00:27:40;99268.91;;;19.56;62.30
10587;BME280;5341;47.606;7.576;2022-10-17T00:30:10;99271.81;;;19.54;62.32
10587;BME280;5341;47.606;7.576;2022-10-17T00:32:39;99274.78;;;19.53;62.33
10587;BME280;5341;47.606;7.576;2022-10-17T00:35:07;99279.38;;;19.52;62.27
10587;BME280;5341;47.606;7.576;2022-10-17T00:37:35;99286.69;;;19.52;62.36
10587;BME280;5341;47.606;7.576;2022-10-17T00:40:06;99289.59;;;19.50;62.45
10587;BME280;5341;47.606;7.576;2022-10-17T00:42:37;99290.66;;;19.49;62.25
10587;BME280;5341;47.606;7.576;2022-10-17T00:45:13;99285.47;;;19.48;62.23
10587;BME280;5341;47.606;7.576;2022-10-17T00:47:44;99281.31;;;19.45;62.27
10587;BME280;5341;47.606;7.576;2022-10-17T00:50:15;99282.38;;;19.44;62.32
10587;BME280;5341;47.606;7.576;2022-10-17T00:52:44;99286.16;;;19.43;62.32
10587;BME280;5341;47.606;7.576;2022-10-17T00:55:16;99287.22;;;19.42;62.35
10587;BME280;5341;47.606;7.576;2022-10-17T00:57:48;99284.72;;;19.41;62.36
10587;BME280;5341;47.606;7.576;2022-10-17T01:00:19;99284.13;;;19.39;62.50
10587;BME280;5341;47.606;7.576;2022-10-17T01:02:47;99284.97;;;19.39;62.42
10587;BME280;5341;47.606;7.576;2022-10-17T01:05:17;99281.63;;;19.37;62.45
10587;BME280;5341;47.606;7.576;2022-10-17T01:07:46;99281.03;;;19.35;62.51
10587;BME280;5341;47.606;7.576;2022-10-17T01:10:17;99279.13;;;19.36;62.49
10587;BME280;5341;47.606;7.576;2022-10-17T01:12:56;99277.47;;;19.35;62.45
10587;BME280;5341;47.606;7.576;2022-10-17T01:15:38;99277.72;;;19.33;62.32
10587;BME280;5341;47.606;7.576;2022-10-17T01:18:19;99280.66;;;19.31;62.33
10587;BME280;5341;47.606;7.576;2022-10-17T01:21:22;99287.13;;;19.30;62.39
10587;BME280;5341;47.606;7.576;2022-10-17T01:30:28;99285.31;;;19.24;62.39
10587;BME280;5341;47.606;7.576;2022-10-17T01:33:08;99282.00;;;19.22;62.24
10587;BME280;5341;47.606;7.576;2022-10-17T01:35:42;99278.69;;;19.20;62.52
10587;BME280;5341;47.606;7.576;2022-10-17T01:38:20;99281.41;;;19.20;62.48
10587;BME280;5341;47.606;7.576;2022-10-17T01:40:54;99281.63;;;19.19;62.61
10587;BME280;5341;47.606;7.576;2022-10-17T01:43:30;99283.50;;;19.18;62.58
10587;BME280;5341;47.606;7.576;2022-10-17T01:46:06;99292.94;;;19.16;62.70
10587;BME280;5341;47.606;7.576;2022-10-17T01:48:43;99288.75;;;19.13;62.58
10587;BME280;5341;47.606;7.576;2022-10-17T01:51:16;99290.88;;;19.11;62.40
10587;BME280;5341;47.606;7.576;2022-10-17T01:53:49;99299.22;;;19.10;62.51
10587;BME280;5341;47.606;7.576;2022-10-17T01:56:21;99290.50;;;19.08;62.43
10587;BME280;5341;47.606;7.576;2022-10-17T01:58:56;99288.03;;;19.06;62.38
10587;BME280;5341;47.606;7.576;2022-10-17T02:01:31;99289.91;;;19.06;62.50
10587;BME280;5341;47.606;7.576;2022-10-17T02:04:05;99284.47;;;19.06;62.51
10587;BME280;5341;47.606;7.576;2022-10-17T02:06:35;99289.31;;;19.03;62.44
10587;BME280;5341;47.606;7.576;2022-10-17T02:09:20;99291.19;;;19.03;62.46
10587;BME280;5341;47.606;7.576;2022-10-17T02:12:02;99291.38;;;19.01;62.58
10587;BME280;5341;47.606;7.576;2022-10-17T02:14:40;99297.03;;;19.00;62.41
10587;BME280;5341;47.606;7.576;2022-10-17T02:17:17;99295.59;;;18.97;62.51
10587;BME280;5341;47.606;7.576;2022-10-17T02:19:56;99297.50;;;18.97;62.53
10587;BME280;5341;47.606;7.576;2022-10-17T02:22:34;99293.13;;;18.96;62.40
10587;BME280;5341;47.606;7.576;2022-10-17T02:25:11;99294.19;;;18.95;62.26
10587;BME280;5341;47.606;7.576;2022-10-17T02:27:44;99289.59;;;18.95;62.48
10587;BME280;5341;47.606;7.576;2022-10-17T02:30:24;99292.53;;;18.94;62.51
10587;BME280;5341;47.606;7.576;2022-10-17T02:33:02;99290.03;;;18.92;62.61
10587;BME280;5341;47.606;7.576;2022-10-17T02:35:38;99293.81;;;18.91;62.51
10587;BME280;5341;47.606;7.576;2022-10-17T02:38:10;99295.69;;;18.91;62.61
10587;BME280;5341;47.606;7.576;2022-10-17T02:40:39;99299.44;;;18.90;62.58
10587;BME280;5341;47.606;7.576;2022-10-17T02:43:07;99291.50;;;18.88;62.54
10587;BME280;5341;47.606;7.576;2022-10-17T02:45:36;99294.44;;;18.87;62.63
10587;BME280;5341;47.606;7.576;2022-10-17T02:48:08;99297.16;;;18.87;62.62
10587;BME280;5341;47.606;7.576;2022-10-17T02:50:46;99293.84;;;18.85;62.55
10587;BME280;5341;47.606;7.576;2022-10-17T02:53:24;99299.50;;;18.83;62.44
10587;BME280;5341;47.606;7.576;2022-10-17T02:55:56;99305.13;;;18.82;62.49
10587;BME280;5341;47.606;7.576;2022-10-17T02:58:29;99308.91;;;18.81;62.54
10587;BME280;5341;47.606;7.576;2022-10-17T03:01:00;99308.06;;;18.80;62.55
10587;BME280;5341;47.606;7.576;2022-10-17T03:03:30;99305.59;;;18.79;62.65
10587;BME280;5341;47.606;7.576;2022-10-17T03:06:02;99303.91;;;18.78;62.38
10587;BME280;5341;47.606;7.576;2022-10-17T03:08:32;99297.88;;;18.76;62.57
10587;BME280;5341;47.606;7.576;2022-10-17T03:11:02;99308.72;;;18.76;62.50
10587;BME280;5341;47.606;7.576;2022-10-17T03:13:32;99310.59;;;18.75;62.59
10587;BME280;5341;47.606;7.576;2022-10-17T03:15:59;99308.94;;;18.74;62.62
10587;BME280;5341;47.606;7.576;2022-10-17T03:18:28;99312.72;;;18.73;62.57
10587;BME280;5341;47.606;7.576;2022-10-17T03:21:01;99314.00;;;18.70;62.81
10587;BME280;5341;47.606;7.576;2022-10-17T03:23:29;99313.16;;;18.70;62.67
10587;BME280;5341;47.606;7.576;2022-10-17T03:25:57;99307.97;;;18.68;62.72
10587;BME280;5341;47.606;7.576;2022-10-17T03:28:24;99308.19;;;18.67;62.69
10587;BME280;5341;47.606;7.576;2022-10-17T03:30:53;99316.50;;;18.65;62.88
10587;BME280;5341;47.606;7.576;2022-10-17T03:33:21;99314.84;;;18.64;62.87
10587;BME280;5341;47.606;7.576;2022-10-17T03:35:49;99322.16;;;18.64;62.77
10587;BME280;5341;47.606;7.576;2022-10-17T03:38:19;99315.88;;;18.63;62.90
10587;BME280;5341;47.606;7.576;2022-10-17T03:40:54;99324.88;;;18.64;62.94
10587;BME280;5341;47.606;7.576;2022-10-17T03:43:21;99324.00;;;18.63;62.99
10587;BME280;5341;47.606;7.576;2022-10-17T03:45:49;99327.56;;;18.64;62.93
10587;BME280;5341;47.606;7.576;2022-10-17T03:48:16;99322.34;;;18.62;62.94
10587;BME280;5341;47.606;7.576;2022-10-17T03:50:44;99332.34;;;18.62;62.92
10587;BME280;5341;47.606;7.576;2022-10-17T03:53:12;99318.22;;;18.60;63.04
10587;BME280;5341;47.606;7.576;2022-10-17T03:55:42;99326.56;;;18.58;62.98
10587;BME280;5341;47.606;7.576;2022-10-17T03:58:09;99331.97;;;18.58;63.02
10587;BME280;5341;47.606;7.576;2022-10-17T04:00:37;99327.84;;;18.56;63.01
10587;BME280;5341;47.606;7.576;2022-10-17T04:03:05;99335.97;;;18.56;63.15
10587;BME280;5341;47.606;7.576;2022-10-17T04:05:32;99346.81;;;18.56;63.11
10587;BME280;5341;47.606;7.576;2022-10-17T04:08:00;99339.72;;;18.55;63.17
10587;BME280;5341;47.606;7.576;2022-10-17T04:10:49;99340.78;;;18.54;62.97
10587;BME280;5341;47.606;7.576;2022-10-17T04:13:16;99344.50;;;18.53;63.16
10587;BME280;5341;47.606;7.576;2022-10-17T04:15:53;99348.03;;;18.53;63.08
10587;BME280;5341;47.606;7.576;2022-10-17T04:18:21;99343.91;;;18.51;63.06
10587;BME280;5341;47.606;7.576;2022-10-17T04:20:49;99350.38;;;18.50;63.17
10587;BME280;5341;47.606;7.576;2022-10-17T04:23:17;99354.13;;;18.49;63.39
10587;BME280;5341;47.606;7.576;2022-10-17T04:25:45;99349.75;;;18.48;63.37
10587;BME280;5341;47.606;7.576;2022-10-17T04:28:14;99352.47;;;18.48;63.38
10587;BME280;5341;47.606;7.576;2022-10-17T04:30:42;99354.34;;;18.47;63.20
10587;BME280;5341;47.606;7.576;2022-10-17T04:33:10;99347.28;;;18.46;63.33
10587;BME280;5341;47.606;7.576;2022-10-17T04:35:37;99355.41;;;18.46;63.23
10587;BME280;5341;47.606;7.576;2022-10-17T04:38:06;99358.13;;;18.46;63.19
10587;BME280;5341;47.606;7.576;2022-10-17T04:40:35;99368.13;;;18.45;63.16
10587;BME280;5341;47.606;7.576;2022-10-17T04:43:03;99363.75;;;18.44;63.31
10587;BME280;5341;47.606;7.576;2022-10-17T04:45:36;99361.03;;;18.44;63.27
10587;BME280;5341;47.606;7.576;2022-10-17T04:48:05;99362.09;;;18.43;63.12
10587;BME280;5341;47.606;7.576;2022-10-17T04:50:33;99365.03;;;18.42;63.10
10587;BME280;5341;47.606;7.576;2022-10-17T04:53:23;99373.16;;;18.42;63.29
10587;BME280;5341;47.606;7.576;2022-10-17T04:55:53;99363.34;;;18.41;63.36
10587;BME280;5341;47.606;7.576;2022-10-17T04:58:21;99370.63;;;18.40;63.10
10587;BME280;5341;47.606;7.576;2022-10-17T05:00:51;99368.13;;;18.39;63.35
10587;BME280;5341;47.606;7.576;2022-10-17T05:03:26;99366.47;;;18.38;63.19
10587;BME280;5341;47.606;7.576;2022-10-17T05:05:54;99367.31;;;18.38;63.23
10587;BME280;5341;47.606;7.576;2022-10-17T05:08:22;99365.06;;;18.35;63.20
10587;BME280;5341;47.606;7.576;2022-10-17T05:10:49;99360.69;;;18.34;63.22
10587;BME280;5341;47.606;7.576;2022-10-17T05:13:18;99375.50;;;18.32;63.24
10587;BME280;5341;47.606;7.576;2022-10-17T05:15:45;99378.44;;;18.30;63.24
10587;BME280;5341;47.606;7.576;2022-10-17T05:18:16;99386.53;;;18.30;63.47
10587;BME280;5341;47.606;7.576;2022-10-17T05:20:44;99389.25;;;18.30;63.41
10587;BME280;5341;47.606;7.576;2022-10-17T05:23:11;99384.66;;;18.31;63.44
10587;BME280;5341;47.606;7.576;2022-10-17T05:25:42;99386.53;;;18.30;63.21
10587;BME280;5341;47.606;7.576;2022-10-17T05:28:10;99397.38;;;18.30;63.46
10587;BME280;5341;47.606;7.576;2022-10-17T05:30:40;99401.13;;;18.29;63.34
10587;BME280;5341;47.606;7.576;2022-10-17T05:33:08;99400.28;;;18.29;63.54
10587;BME280;5341;47.606;7.576;2022-10-17T05:35:37;99396.97;;;18.27;63.29
10587;BME280;5341;47.606;7.576;2022-10-17T05:38:05;99403.41;;;18.26;63.32
10587;BME280;5341;47.606;7.576;2022-10-17T05:40:34;99405.31;;;18.25;63.61
10587;BME280;5341;47.606;7.576;2022-10-17T05:43:04;99398.22;;;18.24;63.57
10587;BME280;5341;47.606;7.576;2022-10-17T05:45:32;99402.81;;;18.24;63.41
10587;BME280;5341;47.606;7.576;2022-10-17T05:48:01;99408.22;;;18.24;63.27
10587;BME280;5341;47.606;7.576;2022-10-17T05:50:30;99406.56;;;18.23;63.48
10587;BME280;5341;47.606;7.576;2022-10-17T05:53:08;99405.97;;;18.21;63.26
10587;BME280;5341;47.606;7.576;2022-10-17T05:55:42;99407.00;;;18.20;63.44
10587;BME280;5341;47.606;7.576;2022-10-17T05:58:12;99404.31;;;18.20;63.37
10587;BME280;5341;47.606;7.576;2022-10-17T06:00:46;99414.31;;;18.19;63.56
10587;BME280;5341;47.606;7.576;2022-10-17T06:03:16;99409.94;;;18.18;63.21
10587;BME280;5341;47.606;7.576;2022-10-17T06:05:45;99409.09;;;18.18;63.41
10587;BME280;5341;47.606;7.576;2022-10-17T06:08:15;99410.94;;;18.17;63.25
10587;BME280;5341;47.606;7.576;2022-10-17T06:10:46;99415.16;;;18.13;63.42
10587;BME280;5341;47.606;7.576;2022-10-17T06:13:15;99423.28;;;18.13;63.34
10587;BME280;5341;47.606;7.576;2022-10-17T06:15:45;99417.03;;;18.12;63.70
10587;BME280;5341;47.606;7.576;2022-10-17T06:18:14;99421.63;;;18.12;63.68
10587;BME280;5341;47.606;7.576;2022-10-17T06:20:42;99425.97;;;18.13;63.23
10587;BME280;5341;47.606;7.576;2022-10-17T06:23:11;99432.00;;;18.15;63.52
10587;BME280;5341;47.606;7.576;2022-10-17T06:25:57;99439.28;;;18.14;63.63
10587;BME280;5341;47.606;7.576;2022-10-17T06:28:25;99435.53;;;18.15;63.57
10587;BME280;5341;47.606;7.576;2022-10-17T06:30:53;99440.94;;;18.15;63.70
10587;BME280;5341;47.606;7.576;2022-10-17T06:33:22;99448.03;;;18.16;63.67
10587;BME280;5341;47.606;7.576;2022-10-17T06:35:53;99457.84;;;18.18;63.60
10587;BME280;5341;47.606;7.576;2022-10-17T06:38:24;99464.91;;;18.19;63.96
10587;BME280;5341;47.606;7.576;2022-10-17T06:41:04;99465.53;;;18.21;63.67
10587;BME280;5341;47.606;7.576;2022-10-17T06:43:33;99454.69;;;18.21;63.86
10587;BME280;5341;47.606;7.576;2022-10-17T06:46:33;99452.81;;;18.21;63.71
10587;BME280;5341;47.606;7.576;2022-10-17T06:49:03;99460.09;;;18.21;63.88
10587;BME280;5341;47.606;7.576;2022-10-17T06:51:49;99466.34;;;18.21;64.05
10587;BME280;5341;47.606;7.576;2022-10-17T06:54:21;99470.72;;;18.22;63.99
10587;BME280;5341;47.606;7.576;2022-10-17T06:57:09;99484.88;;;18.24;63.97
10587;BME280;5341;47.606;7.576;2022-10-17T06:59:45;99485.47;;;18.26;63.94
10587;BME280;5341;47.606;7.576;2022-10-17T07:02:21;99486.09;;;18.28;63.86
10587;BME280;5341;47.606;7.576;2022-10-17T07:04:50;99483.19;;;18.30;64.05
10587;BME280;5341;47.606;7.576;2022-10-17T07:07:18;99482.97;;;18.31;64.10
10587;BME280;5341;47.606;7.576;2022-10-17T07:09:47;99484.63;;;18.32;63.91
10587;BME280;5341;47.606;7.576;2022-10-17T07:12:18;99491.28;;;18.36;63.94
10587;BME280;5341;47.606;7.576;2022-10-17T07:14:46;99491.06;;;18.38;63.98
10587;BME280;5341;47.606;7.576;2022-10-17T07:17:15;99501.47;;;18.41;64.01
10587;BME280;5341;47.606;7.576;2022-10-17T07:19:44;99491.25;;;18.43;64.00
10587;BME280;5341;47.606;7.576;2022-10-17T07:22:12;99490.38;;;18.49;64.00
10587;BME280;5341;47.606;7.576;2022-10-17T07:24:43;99496.19;;;18.53;64.14
10587;BME280;5341;47.606;7.576;2022-10-17T07:27:19;99493.09;;;18.56;64.10
10587;BME280;5341;47.606;7.576;2022-10-17T07:29:47;99491.59;;;18.60;64.33
10587;BME280;5341;47.606;7.576;2022-10-17T07:32:37;99494.69;;;18.63;64.40
10587;BME280;5341;47.606;7.576;2022-10-17T07:35:08;99504.09;;;18.67;64.41
10587;BME280;5341;47.606;7.576;2022-10-17T07:37:37;99510.72;;;18.71;64.50
10587;BME280;5341;47.606;7.576;2022-10-17T07:40:07;99510.91;;;18.77;64.66
10587;BME280;5341;47.606;7.576;2022-10-17T07:42:38;99516.31;;;18.83;64.75
10587;BME280;5341;47.606;7.576;2022-10-17T07:45:07;99517.28;;;18.89;64.62
10587;BME280;5341;47.606;7.576;2022-10-17T07:47:36;99523.53;;;18.96;64.63
10587;BME280;5341;47.606;7.576;2022-10-17T07:50:07;99524.53;;;19.01;64.61
10587;BME280;5341;47.606;7.576;2022-10-17T07:52:35;99525.53;;;19.07;64.47
10587;BME280;5341;47.606;7.576;2022-10-17T07:55:03;99529.25;;;19.13;64.38
10587;BME280;5341;47.606;7.576;2022-10-17T07:57:32;99526.72;;;19.18;64.16
10587;BME280;5341;47.606;7.576;2022-10-17T08:00:02;99525.00;;;19.23;63.81
10587;BME280;5341;47.606;7.576;2022-10-17T08:02:38;99535.81;;;19.30;64.06
10587;BME280;5341;47.606;7.576;2022-10-17T08:05:06;99538.25;;;19.38;64.08
10587;BME280;5341;47.606;7.576;2022-10-17T08:07:35;99548.44;;;19.43;64.39
10587;BME280;5341;47.606;7.576;2022-10-17T08:10:05;99555.28;;;19.52;64.26
10587;BME280;5341;47.606;7.576;2022-10-17T08:12:33;99554.41;;;19.58;64.23
10587;BME280;5341;47.606;7.576;2022-10-17T08:15:04;99546.00;;;19.66;63.77
10587;BME280;5341;47.606;7.576;2022-10-17T08:17:33;99544.03;;;19.73;63.53
10587;BME280;5341;47.606;7.576;2022-10-17T08:20:01;99555.69;;;19.80;63.40
10587;BME280;5341;47.606;7.576;2022-10-17T08:22:29;99560.00;;;19.88;63.52
10587;BME280;5341;47.606;7.576;2022-10-17T08:24:58;99554.50;;;19.95;63.59
10587;BME280;5341;47.606;7.576;2022-10-17T08:27:27;99558.81;;;20.02;63.30
10587;BME280;5341;47.606;7.576;2022-10-17T08:29:55;99560.19;;;20.11;63.05
10587;BME280;5341;47.606;7.576;2022-10-17T08:32:26;99558.84;;;20.20;63.02
10587;BME280;5341;47.606;7.576;2022-10-17T08:34:55;99557.72;;;20.28;62.96
10587;BME280;5341;47.606;7.576;2022-10-17T08:37:23;99559.31;;;20.36;62.77
10587;BME280;5341;47.606;7.576;2022-10-17T08:39:52;99555.25;;;20.45;62.46
10587;BME280;5341;47.606;7.576;2022-10-17T08:42:41;99559.09;;;20.56;61.95
10587;BME280;5341;47.606;7.576;2022-10-17T08:45:17;99558.78;;;20.64;61.91
10587;BME280;5341;47.606;7.576;2022-10-17T08:47:52;99559.53;;;20.71;61.32
10587;BME280;5341;47.606;7.576;2022-10-17T08:50:27;99559.91;;;20.74;61.14
10587;BME280;5341;47.606;7.576;2022-10-17T08:53:02;99570.09;;;20.79;60.89
10587;BME280;5341;47.606;7.576;2022-10-17T08:55:35;99564.19;;;20.82;60.67
10587;BME280;5341;47.606;7.576;2022-10-17T08:58:11;99555.38;;;20.87;60.68
10587;BME280;5341;47.606;7.576;2022-10-17T09:00:41;99556.56;;;20.91;60.82
10587;BME280;5341;47.606;7.576;2022-10-17T09:03:31;99549.75;;;21.00;60.73
10587;BME280;5341;47.606;7.576;2022-10-17T09:06:11;99547.75;;;21.07;60.56
10587;BME280;5341;47.606;7.576;2022-10-17T09:08:45;99551.81;;;21.16;60.66
10587;BME280;5341;47.606;7.576;2022-10-17T09:11:23;99554.00;;;21.26;60.52
10587;BME280;5341;47.606;7.576;2022-10-17T09:14:06;99550.13;;;21.33;60.32
10587;BME280;5341;47.606;7.576;2022-10-17T09:16:53;99554.16;;;21.43;60.22
10587;BME280;5341;47.606;7.576;2022-10-17T09:19:28;99553.81;;;21.51;60.21
10587;BME280;5341;47.606;7.576;2022-10-17T09:22:02;99555.16;;;21.60;60.34
10587;BME280;5341;47.606;7.576;2022-10-17T09:24:38;99560.03;;;21.70;60.46
10587;BME280;5341;47.606;7.576;2022-10-17T09:27:17;99561.06;;;21.80;60.33
10587;BME280;5341;47.606;7.576;2022-10-17T09:29:53;99568.66;;;21.90;60.10
10587;BME280;5341;47.606;7.576;2022-10-17T09:32:23;99576.84;;;22.02;59.72
10587;BME280;5341;47.606;7.576;2022-10-17T09:34:54;99578.19;;;22.11;59.33
10587;BME280;5341;47.606;7.576;2022-10-17T09:37:28;99577.59;;;22.20;59.14
10587;BME280;5341;47.606;7.576;2022-10-17T09:39:57;99573.44;;;22.30;59.12
10587;BME280;5341;47.606;7.576;2022-10-17T09:42:25;99584.78;;;22.38;58.49
10587;BME280;5341;47.606;7.576;2022-10-17T09:45:02;99572.69;;;22.46;57.82
10587;BME280;5341;47.606;7.576;2022-10-17T09:47:36;99577.41;;;22.50;57.86
10587;BME280;5341;47.606;7.576;2022-10-17T09:50:15;99579.69;;;22.54;57.85
10587;BME280;5341;47.606;7.576;2022-10-17T09:52:44;99582.75;;;22.57;58.15
10587;BME280;5341;47.606;7.576;2022-10-17T09:55:17;99577.06;;;22.59;57.67
10587;BME280;5341;47.606;7.576;2022-10-17T09:57:57;99584.50;;;22.63;57.15
10587;BME280;5341;47.606;7.576;2022-10-17T10:00:27;99577.97;;;22.64;57.15
10587;BME280;5341;47.606;7.576;2022-10-17T10:03:14;99582.72;;;22.69;57.45
10587;BME280;5341;47.606;7.576;2022-10-17T10:05:58;99583.78;;;22.68;57.89
10587;BME280;5341;47.606;7.576;2022-10-17T10:08:27;99591.16;;;22.67;57.71
10587;BME280;5341;47.606;7.576;2022-10-17T10:11:00;99589.59;;;22.71;57.32
10587;BME280;5341;47.606;7.576;2022-10-17T10:13:30;99586.94;;;22.76;57.00
10587;BME280;5341;47.606;7.576;2022-10-17T10:16:17;99590.41;;;22.84;56.61
10587;BME280;5341;47.606;7.576;2022-10-17T10:18:47;99589.47;;;22.90;56.37
10587;BME280;5341;47.606;7.576;2022-10-17T10:21:18;99584.09;;;22.95;56.59
10587;BME280;5341;47.606;7.576;2022-10-17T10:24:04;99585.63;;;23.02;55.87
10587;BME280;5341;47.606;7.576;2022-10-17T10:26:36;99585.47;;;23.09;56.20
10587;BME280;5341;47.606;7.576;2022-10-17T10:29:17;99595.16;;;23.17;55.85
10587;BME280;5341;47.606;7.576;2022-10-17T10:31:46;99602.38;;;23.23;55.28
10587;BME280;5341;47.606;7.576;2022-10-17T10:34:18;99603.06;;;23.30;55.84
10587;BME280;5341;47.606;7.576;2022-10-17T10:37:00;99612.41;;;23.34;55.55
10587;BME280;5341;47.606;7.576;2022-10-17T10:39:36;99605.38;;;23.38;55.25
10587;BME280;5341;47.606;7.576;2022-10-17T10:42:10;99603.34;;;23.45;55.81
10587;BME280;5341;47.606;7.576;2022-10-17T10:44:43;99605.31;;;23.50;56.15
10587;BME280;5341;47.606;7.576;2022-10-17T10:47:18;99604.84;;;23.53;56.40
10587;BME280;5341;47.606;7.576;2022-10-17T10:49:47;99615.25;;;23.56;56.62
10587;BME280;5341;47.606;7.576;2022-10-17T10:52:28;99611.00;;;23.60;56.46
10587;BME280;5341;47.606;7.576;2022-10-17T10:55:03;99614.06;;;23.63;56.32
10587;BME280;5341;47.606;7.576;2022-10-17T10:57:37;99625.31;;;23.67;56.28
10587;BME280;5341;47.606;7.576;2022-10-17T11:00:11;99618.28;;;23.71;56.42
10587;BME280;5341;47.606;7.576;2022-10-17T11:02:46;99622.78;;;23.77;56.16
10587;BME280;5341;47.606;7.576;2022-10-17T11:05:21;99623.69;;;23.83;55.99
10587;BME280;5341;47.606;7.576;2022-10-17T11:07:57;99625.44;;;23.89;55.36
10587;BME280;5341;47.606;7.576;2022-10-17T11:10:32;99622.88;;;23.99;54.71
10587;BME280;5341;47.606;7.576;2022-10-17T11:13:08;99622.69;;;24.06;54.47
10587;BME280;5341;47.606;7.576;2022-10-17T11:15:43;99619.28;;;24.15;53.89
10587;BME280;5341;47.606;7.576;2022-10-17T11:18:19;99622.91;;;24.21;53.60
10587;BME280;5341;47.606;7.576;2022-10-17T11:20:52;99621.34;;;24.25;54.09
10587;BME280;5341;47.606;7.576;2022-10-17T11:23:29;99617.03;;;24.29;54.34
10587;BME280;5341;47.606;7.576;2022-10-17T11:26:04;99620.13;;;24.33;54.80
10587;BME280;5341;47.606;7.576;2022-10-17T11:28:33;99618.88;;;24.40;54.96
10587;BME280;5341;47.606;7.576;2022-10-17T11:31:05;99613.97;;;24.42;53.98
10587;BME280;5341;47.606;7.576;2022-10-17T11:33:40;99616.53;;;24.49;54.84
10587;BME280;5341;47.606;7.576;2022-10-17T11:36:10;99612.22;;;24.53;55.11
10587;BME280;5341;47.606;7.576;2022-10-17T11:38:44;99609.06;;;24.61;53.88
10587;BME280;5341;47.606;7.576;2022-10-17T11:41:17;99610.06;;;24.77;53.52
10587;BME280;5341;47.606;7.576;2022-10-17T11:43:50;99616.41;;;24.82;54.07
10587;BME280;5341;47.606;7.576;2022-10-17T11:46:22;99620.94;;;24.94;52.48
10587;BME280;5341;47.606;7.576;2022-10-17T11:48:58;99615.63;;;25.04;52.96
10587;BME280;5341;47.606;7.576;2022-10-17T11:51:29;99607.56;;;25.19;51.53
10587;BME280;5341;47.606;7.576;2022-10-17T11:54:09;99609.03;;;25.27;52.25
10587;BME280;5341;47.606;7.576;2022-10-17T11:56:43;99609.34;;;25.30;52.94
10587;BME280;5341;47.606;7.576;2022-10-17T11:59:37;99608.44;;;25.47;50.22
10587;BME280;5341;47.606;7.576;2022-10-17T12:02:11;99608.78;;;25.55;50.24
10587;BME280;5341;47.606;7.576;2022-10-17T12:04:50;99603.66;;;25.64;49.06
10587;BME280;5341;47.606;7.576;2022-10-17T12:07:26;99603.47;;;25.70;49.91
10587;BME280;5341;47.606;7.576;2022-10-17T12:10:17;99599.91;;;25.70;50.19
10587;BME280;5341;47.606;7.576;2022-10-17T12:12:49;99604.75;;;25.63;50.35
10587;BME280;5341;47.606;7.576;2022-10-17T12:15:29;99602.81;;;25.63;50.14
10587;BME280;5341;47.606;7.576;2022-10-17T12:17:59;99595.81;;;25.73;48.49
10587;BME280;5341;47.606;7.576;2022-10-17T12:20:33;99593.19;;;25.88;47.86
10587;BME280;5341;47.606;7.576;2022-10-17T12:23:19;99595.75;;;25.99;47.66
10587;BME280;5341;47.606;7.576;2022-10-17T12:25:51;99602.13;;;26.05;46.78
10587;BME280;5341;47.606;7.576;2022-10-17T12:28:25;99601.06;;;26.11;46.80
10587;BME280;5341;47.606;7.576;2022-10-17T12:30:58;99608.19;;;26.12;48.47
10587;BME280;5341;47.606;7.576;2022-10-17T12:33:33;99602.94;;;26.06;49.77
10587;BME280;5341;47.606;7.576;2022-10-17T12:36:37;99596.63;;;26.05;46.76
10587;BME280;5341;47.606;7.576;2022-10-17T12:42:32;99592.84;;;26.16;48.61
10587;BME280;5341;47.606;7.576;2022-10-17T12:44:59;99592.28;;;26.14;51.12
10587;BME280;5341;47.606;7.576;2022-10-17T12:47:36;99596.41;;;26.12;50.51
10587;BME280;5341;47.606;7.576;2022-10-17T12:53:17;99594.53;;;26.17;50.08
10587;BME280;5341;47.606;7.576;2022-10-17T12:55:46;99582.75;;;26.22;49.80
10587;BME280;5341;47.606;7.576;2022-10-17T12:58:18;99586.16;;;26.39;46.12
10587;BME280;5341;47.606;7.576;2022-10-17T13:00:50;99586.50;;;26.48;45.66
10587;BME280;5341;47.606;7.576;2022-10-17T13:03:21;99583.81;;;26.58;45.37
10587;BME280;5341;47.606;7.576;2022-10-17T13:05:52;99582.72;;;26.64;44.50
10587;BME280;5341;47.606;7.576;2022-10-17T13:08:21;99580.59;;;26.71;44.33
10587;BME280;5341;47.606;7.576;2022-10-17T13:10:51;99586.06;;;26.71;45.32
10587;BME280;5341;47.606;7.576;2022-10-17T13:13:24;99585.53;;;26.74;44.13
10587;BME280;5341;47.606;7.576;2022-10-17T13:15:53;99578.44;;;26.78;43.78
10587;BME280;5341;47.606;7.576;2022-10-17T13:18:23;99578.72;;;26.82;44.21
10587;BME280;5341;47.606;7.576;2022-10-17T13:20:57;99576.22;;;26.80;44.43
10587;BME280;5341;47.606;7.576;2022-10-17T13:23:28;99580.34;;;26.83;45.74
10587;BME280;5341;47.606;7.576;2022-10-17T13:26:07;99569.38;;;26.78;45.50
10587;BME280;5341;47.606;7.576;2022-10-17T13:28:41;99575.41;;;26.80;44.09
10587;BME280;5341;47.606;7.576;2022-10-17T13:31:26;99571.88;;;26.90;43.36
10587;BME280;5341;47.606;7.576;2022-10-17T13:33:55;99570.25;;;26.94;43.12
10587;BME280;5341;47.606;7.576;2022-10-17T13:36:25;99571.34;;;26.93;45.32
10587;BME280;5341;47.606;7.576;2022-10-17T13:38:54;99560.91;;;27.00;43.29
10587;BME280;5341;47.606;7.576;2022-10-17T13:41:24;99566.47;;;27.05;43.08
10587;BME280;5341;47.606;7.576;2022-10-17T13:43:56;99564.00;;;27.08;44.02
10587;BME280;5341;47.606;7.576;2022-10-17T13:46:27;99572.78;;;27.10;44.33
10587;BME280;5341;47.606;7.576;2022-10-17T13:48:57;99570.03;;;27.10;44.70
10587;BME280;5341;47.606;7.576;2022-10-17T13:51:26;99567.00;;;27.12;44.44